Terminal Aerodrome Forecast
Issued by NWS Blacksburg, VA

Current Version | Previous Version | Graphics & Text | Print | Product List | Glossary On
Versions: 1 2 3 4 5 6 7 8 9 10 11 12 13 14
000
FTUS41 KRNK 181721
TAFBLF
TAF
KBLF 181721Z 1818/1918 VRB03KT P6SM OVC200
     FM190000 12006KT P6SM BKN035 OVC100
     FM190800 10005KT P6SM BKN025 OVC060
     FM191300 08008KT P6SM -RA OVC015=

USA.gov is the U.S. government's official web portal to all federal, state and local government web resources and services.